METAR Data
IDs: Format: Raw Decoded Include TAF

Data at: 1607 UTC 21 Sep 2018

KEYW 211604Z 01008KT 2SM VCTS -RA FEW025 BKN033 OVC100 27/23 A3005 RMK AO2 LTG DSNT SE AND W TSE1556 P0001 T02670228
KEYW 211557Z 36011G17KT 3SM VCTS -RA BR FEW018 BKN036 OVC046 27/24 A3005 RMK AO2 LTG DSNT SE AND W AND NW TSE56 P0001 T02670244
KEYW 211553Z 35009G17KT 2SM TSRA FEW018 BKN034 OVC044 28/25 A3005 RMK AO2 LTG DSNT SE AND W AND NW RAB37 TSE04B13 SLP177 P0016 T02780250
KEYW 211545Z 35007KT 1SM +TSRA SCT025 BKN030 OVC036 27/24 A3006 RMK AO2 LTG DSNT ALQDS RAB37 TSE04B13 P0006 T02720239
KEYW 211543Z 01005KT 1 1/2SM +TSRA BKN026 OVC036 28/24 A3006 RMK AO2 LTG DSNT ALQDS RAB37 TSE04B13 P0002 T02780239
KEYW 211519Z 04008KT 10SM TS BKN026 31/24 A3005 RMK AO2 LTG DSNT ALQDS TSE04B13 T03060244
KEYW 211509Z 09007KT 10SM VCTS BKN028 BKN038 32/24 A3004 RMK AO2 LTG DSNT ALQDS TSE04 T03220244
KEYW 211453Z 07006KT 10SM TS FEW018 SCT028 BKN050 32/24 A3005 RMK AO2 LTG DSNT NW-NE TSB47 SLP174 T03220244 53012
KEYW 211404Z 08007KT 10SM FEW025 SCT039 SCT050 32/24 A3004 RMK AO2 LTG DSNT N AND NE T03170244
KEYW 211357Z 08007KT 10SM VCTS FEW025 SCT039 SCT050 32/24 A3004 RMK AO2 LTG DSNT N AND NE T03170239
KEYW 211353Z 08007KT 10SM VCTS CLR 32/24 A3004 RMK AO2 LTG DSNT N AND NE TSE20 SLP170 T03220244
KEYW 211343Z 09009KT 10SM VCTS FEW025 32/24 A3003 RMK AO2 LTG DSNT NE TSE20 T03170239
KEYW 211326Z 10010KT 10SM FEW025 SCT039 SCT050 31/24 A3003 RMK AO2 TSE20 T03110244
KEYW 211253Z 12007KT 10SM TS SCT026 BKN045 31/24 A3002 RMK AO2 TSB39 SLP166 TCU DSNT NE AND S-N T03110244
KEYW 211245Z 08008KT 10SM TS SCT026 SCT035 BKN047 31/24 A3002 RMK AO2 TSB39 TCU DSNT NE AND S-N T03110244
KEYW 211153Z 04004KT 10SM SCT026 BKN031 29/24 A3001 RMK AO2 LTG DSNT NW TSB27E42 SLP162 CB DSNT SW AND N 70002 T02940244 10294 20272 50009
KEYW 211148Z VRB03KT 10SM BKN026 BKN031 29/24 A3001 RMK AO2 TSB27E42 CB DSNT SW AND N
KEYW 211136Z 08005KT 10SM TS BKN026 BKN031 29/24 A3001 RMK AO2 LTG DSNT NW TSB27 CB DSNT SW AND N T02940239
KEYW 211127Z 06004KT 10SM TS SCT023 29/23 A3000 RMK AO2 LTG DSNT W-N TSB27 T02940233
KEYW 211053Z 07005KT 10SM FEW024 FEW032 SCT049 29/23 A3000 RMK AO2 SLP157 TCU E AND W T02890233
KEYW 210953Z AUTO 08004KT 10SM FEW027 29/24 A2998 RMK AO2 LTG DSNT E SLP153 T02890244
KEYW 210853Z AUTO 09005KT 10SM CLR 29/24 A2998 RMK AO2 SLP151 T02890239 56017
KEYW 210753Z AUTO 08003KT 10SM FEW028 29/24 A2999 RMK AO2 LTG DSNT NE SLP154 T02890244
KEYW 210653Z AUTO 11006KT 10SM CLR 29/24 A3000 RMK AO2 LTG DSNT W-N SLP160 T02890239
KEYW 210600Z AUTO 02004KT 10SM SCT120 28/24 A3003 RMK AO2 LTG DSNT N AND W T02780239
KEYW 210553Z AUTO 03004KT 10SM VCTS FEW065 FEW110 28/23 A3003 RMK AO2 LTG DSNT N AND W RAB14E38 SLP168 P0002 60002 T02780233 10306 20267 58005
KEYW 210529Z AUTO 08006KT 10SM VCTS -RA FEW031 BKN070 OVC110 27/21 A3004 RMK AO2 LTG DSNT W RAB14 P0002 T02670211
KEYW 210512Z AUTO 06012G22KT 10SM SCT026 BKN039 BKN080 28/23 A3005 RMK AO2 LTG DSNT W T02830228
KEYW 210453Z AUTO 09007KT 10SM VCTS SCT028 30/24 A3005 RMK AO2 LTG DSNT NE AND E AND W RAB01E38 SLP174 P0000 T03000239 403500278
KEYW 210441Z AUTO 11008KT 10SM VCTS SCT026 30/24 A3004 RMK AO2 LTG DSNT NE AND E RAB01E38 P0000 T03000239
KEYW 210429Z AUTO 09006KT 10SM -RA BKN025 BKN036 OVC090 29/25 A3005 RMK AO2 LTG DSNT N AND NE RAB01 P0000 T02890250
KEYW 210353Z AUTO 08005KT 10SM SCT024 31/24 A3004 RMK AO2 LTG DSNT N SLP173 T03060244
KEYW 210253Z AUTO 10006KT 10SM CLR 31/24 A3004 RMK AO2 SLP173 T03060239 53012
KEYW 210153Z AUTO 08005KT 10SM CLR 31/24 A3003 RMK AO2 SLP168 T03060239
KEYW 210111Z AUTO 10005KT 10SM CLR 31/24 A3001 RMK AO2 LTG DSNT NE T03060239
KEYW 210053Z AUTO 11007KT 10SM VCTS CLR 31/24 A3001 RMK AO2 LTG DSNT W TSB30E45 SLP161 T03060239
KEYW 210051Z AUTO 10007KT 10SM VCTS CLR 31/24 A3001 RMK AO2 TSB30E45
KEYW 210036Z AUTO 12005KT 10SM TS CLR 31/24 A3000 RMK AO2 TSB30 T03060239
KEYW 202353Z 11007KT 10SM SCT025 BKN033 31/24 A3001 RMK AO2 SLP161 T03060239 10350 20306 53008
KEYW 202253Z 10006KT 10SM SCT025 BKN036 31/24 A3000 RMK AO2 SLP158 T03110244
KEYW 202153Z 14005KT 10SM SCT027 BKN036 31/24 A2998 RMK AO2 SLP152 T03110244
KEYW 202112Z AUTO VRB03KT 10SM BKN028 32/24 A2999 RMK AO2 T03170244
KEYW 202053Z AUTO VRB06KT 10SM SCT028 33/25 A2998 RMK AO2 SLP153 T03280250 56017
KEYW 201953Z VRB05KT 10SM CLR 34/25 A2999 RMK AO2 SLP155 T03390250
KEYW 201858Z VRB05KT 10SM CLR 34/24 A3001 RMK AO2 T03390239
KEYW 201853Z 33006KT 10SM CLR 34/24 A3001 RMK AO2 SLP161 T03440244
KEYW 201753Z 36005KT 10SM FEW025 34/24 A3003 RMK AO2 SLP170 T03390239 10339 20289 58007
KEYW 201653Z VRB03KT 10SM FEW025 31/24 A3006 RMK AO2 SLP178 T03110239
KEYW 201553Z 17003KT 10SM FEW025 31/24 A3006 RMK AO2 SLP180 T03060239
KEYW 201537Z VRB04KT 10SM FEW025 31/24 A3006 RMK AO2 T03110239
KEYW 201535Z 16005KT 10SM BKN028 31/24 A3006 RMK AO2 T03110244
KEYW 201453Z 16006KT 10SM FEW030 31/24 A3006 RMK AO2 SLP177 T03110244 51016
KEYW 201353Z 15003KT 10SM CLR 31/24 A3005 RMK AO2 SLP174 T03060244
KEYW 201253Z 17005KT 10SM CLR 29/24 A3003 RMK AO2 SLP168 T02940244
KEYW 201153Z 08003KT 10SM CLR 29/24 A3001 RMK AO2 SLP161 T02890244 10289 20278 53012
KEYW 201053Z AUTO 00000KT 10SM CLR 28/24 A2999 RMK AO2 SLP154 T02830244
KEYW 200953Z AUTO 07003KT 10SM CLR 29/23 A2998 RMK AO2 SLP151 T02890233
KEYW 200853Z AUTO 12003KT 10SM BKN090 29/23 A2997 RMK AO2 SLP149 T02890233 58004
KEYW 200753Z AUTO 00000KT 10SM SCT090 28/24 A2998 RMK AO2 SLP151 T02830244
KEYW 200653Z AUTO 00000KT 10SM FEW085 28/23 A2998 RMK AO2 SLP152 T02830233
KEYW 200553Z AUTO 00000KT 10SM CLR 28/24 A2998 RMK AO2 SLP152 T02830239 10306 20283 58010
KEYW 200453Z AUTO 28004KT 10SM CLR 28/24 A2999 RMK AO2 SLP155 T02830239 403170283